This is the latest recevied weather packets stored in our database for station/object K1WJY. If no packets are shown the sender has not sent any weather packets the latest 10 day(s).
| Time | Temp. | Humidity | Pressure | Rain* | Wind** | Luminosity | Snow |
|---|---|---|---|---|---|---|---|
| 1788113927 | 25° C | 64% | 1017 hPa | 0 mm | - | 146 W/m² | - |
| 1788113623 | 25° C | 64% | 1016.8 hPa | 0 mm | - | 141 W/m² | - |
| 1788113317 | 25° C | 64% | 1016.7 hPa | 0 mm | - | 150 W/m² | - |
| 1788113017 | 25° C | 64% | 1017 hPa | 0 mm | - | 152 W/m² | - |
| 1788112716 | 25° C | 64% | 1016.8 hPa | 0 mm | - | 151 W/m² | - |
| 1788112411 | 25.56° C | 63% | 1016.7 hPa | 0 mm | - | 148 W/m² | - |
| 1788112106 | 25.56° C | 62% | 1016.9 hPa | 0 mm | - | 154 W/m² | - |
| 1788111801 | 26.11° C | 62% | 1016.9 hPa | 0 mm | - | 221 W/m² | - |
| 1788111501 | 26.67° C | 60% | 1016.8 hPa | 0 mm | - | 268 W/m² | - |
| 1788111197 | 26.11° C | 60% | 1016.9 hPa | 0 mm | - | 389 W/m² | - |
| 1788110893 | 26.67° C | 60% | 1017 hPa | 0 mm | - | 331 W/m² | - |
| 1788110589 | 27.22° C | 57% | 1017 hPa | 0 mm | - | 353 W/m² | - |
| 1788110285 | 27.22° C | 57% | 1017.1 hPa | 0 mm | - | 341 W/m² | - |
| 1788109980 | 27.22° C | 56% | 1016.9 hPa | 0 mm | - | 618 W/m² | - |
| 1788109674 | 26.67° C | 57% | 1016.9 hPa | 0 mm | - | 531 W/m² | - |
| 1788109374 | 27.22° C | 57% | 1017 hPa | 0 mm | - | 344 W/m² | - |
| 1788109073 | 26.67° C | 58% | 1017 hPa | 0 mm | - | 575 W/m² | - |
| 1788108769 | 26.67° C | 57% | 1016.8 hPa | 0 mm | - | 501 W/m² | - |
| 1788108465 | 26.11° C | 58% | 1017.2 hPa | 0 mm | - | 501 W/m² | - |
| 1788108161 | 26.11° C | 59% | 1017.4 hPa | 0 mm | - | 237 W/m² | - |
| 1788107857 | 26.67° C | 57% | 1017.2 hPa | 0 mm | - | 228 W/m² | - |
| 1788107553 | 27.22° C | 57% | 1017.3 hPa | 0 mm | - | 305 W/m² | - |
| 1788107247 | 27.22° C | 56% | 1017.4 hPa | 0 mm | - | 282 W/m² | - |
| 1788106943 | 27.78° C | 54% | 1017.5 hPa | 0 mm | - | 592 W/m² | - |
| 1788106639 | 27.78° C | 56% | 1017.6 hPa | 0 mm | - | 642 W/m² | - |
* Rain latest hour (hover to see other rain measurements)
** Current wind speed in m/s (hover to see current wind gust speed)